sensor_id;sensor_type;location;lat;lon;timestamp;P1;durP1;ratioP1;P2;durP2;ratioP2
84009;SDS011;74073;51.482;4.302;2024-03-02T00:02:08;0.90;;;0.22;;
84009;SDS011;74073;51.482;4.302;2024-03-02T00:04:34;1.50;;;0.10;;
84009;SDS011;74073;51.482;4.302;2024-03-02T00:07:00;2.80;;;0.22;;
84009;SDS011;74073;51.482;4.302;2024-03-02T00:09:26;1.80;;;0.47;;
84009;SDS011;74073;51.482;4.302;2024-03-02T00:11:51;0.88;;;0.13;;
84009;SDS011;74073;51.482;4.302;2024-03-02T00:14:17;1.17;;;0.38;;
84009;SDS011;74073;51.482;4.302;2024-03-02T00:16:44;1.48;;;0.35;;
84009;SDS011;74073;51.482;4.302;2024-03-02T00:19:10;1.30;;;0.32;;
84009;SDS011;74073;51.482;4.302;2024-03-02T00:21:36;1.17;;;0.13;;
84009;SDS011;74073;51.482;4.302;2024-03-02T00:24:07;1.02;;;0.13;;
84009;SDS011;74073;51.482;4.302;2024-03-02T00:26:40;1.38;;;0.17;;
84009;SDS011;74073;51.482;4.302;2024-03-02T00:29:09;1.73;;;0.22;;
84009;SDS011;74073;51.482;4.302;2024-03-02T00:31:38;1.88;;;0.32;;
84009;SDS011;74073;51.482;4.302;2024-03-02T00:34:05;1.33;;;0.22;;
84009;SDS011;74073;51.482;4.302;2024-03-02T00:36:31;1.55;;;0.13;;
84009;SDS011;74073;51.482;4.302;2024-03-02T00:38:57;2.10;;;0.15;;
84009;SDS011;74073;51.482;4.302;2024-03-02T00:41:24;1.40;;;0.10;;
84009;SDS011;74073;51.482;4.302;2024-03-02T00:44:33;0.75;;;0.32;;
84009;SDS011;74073;51.482;4.302;2024-03-02T00:46:40;1.23;;;0.15;;
84009;SDS011;74073;51.482;4.302;2024-03-02T00:51:38;2.15;;;0.43;;
84009;SDS011;74073;51.482;4.302;2024-03-02T00:54:05;1.20;;;0.20;;
84009;SDS011;74073;51.482;4.302;2024-03-02T00:56:32;1.85;;;0.25;;
84009;SDS011;74073;51.482;4.302;2024-03-02T00:58:59;0.95;;;0.40;;
84009;SDS011;74073;51.482;4.302;2024-03-02T01:01:25;1.42;;;0.15;;
84009;SDS011;74073;51.482;4.302;2024-03-02T01:03:52;1.35;;;0.25;;
84009;SDS011;74073;51.482;4.302;2024-03-02T01:06:18;4.68;;;0.75;;
84009;SDS011;74073;51.482;4.302;2024-03-02T01:08:44;4.07;;;0.98;;
84009;SDS011;74073;51.482;4.302;2024-03-02T01:11:11;6.57;;;0.80;;
84009;SDS011;74073;51.482;4.302;2024-03-02T01:13:37;9.32;;;0.90;;
84009;SDS011;74073;51.482;4.302;2024-03-02T01:16:03;10.50;;;1.10;;
84009;SDS011;74073;51.482;4.302;2024-03-02T01:18:29;10.40;;;0.80;;
84009;SDS011;74073;51.482;4.302;2024-03-02T01:20:56;7.75;;;0.95;;
84009;SDS011;74073;51.482;4.302;2024-03-02T01:23:22;9.52;;;0.93;;
84009;SDS011;74073;51.482;4.302;2024-03-02T01:25:48;11.23;;;1.10;;
84009;SDS011;74073;51.482;4.302;2024-03-02T01:28:14;9.13;;;1.27;;
84009;SDS011;74073;51.482;4.302;2024-03-02T01:30:40;7.72;;;0.95;;
84009;SDS011;74073;51.482;4.302;2024-03-02T01:33:07;12.55;;;1.02;;
84009;SDS011;74073;51.482;4.302;2024-03-02T01:35:33;7.03;;;0.68;;
84009;SDS011;74073;51.482;4.302;2024-03-02T01:38:00;8.73;;;0.80;;
84009;SDS011;74073;51.482;4.302;2024-03-02T01:40:26;6.32;;;0.70;;
84009;SDS011;74073;51.482;4.302;2024-03-02T01:42:53;7.75;;;1.05;;
84009;SDS011;74073;51.482;4.302;2024-03-02T01:45:20;8.50;;;0.85;;
84009;SDS011;74073;51.482;4.302;2024-03-02T01:47:46;8.20;;;1.10;;
84009;SDS011;74073;51.482;4.302;2024-03-02T01:50:12;9.82;;;1.48;;
84009;SDS011;74073;51.482;4.302;2024-03-02T01:52:39;7.88;;;0.88;;
84009;SDS011;74073;51.482;4.302;2024-03-02T01:55:05;9.30;;;1.20;;
84009;SDS011;74073;51.482;4.302;2024-03-02T01:57:32;7.43;;;0.88;;
84009;SDS011;74073;51.482;4.302;2024-03-02T01:59:58;7.40;;;0.50;;
84009;SDS011;74073;51.482;4.302;2024-03-02T02:02:24;6.47;;;0.22;;
84009;SDS011;74073;51.482;4.302;2024-03-02T02:04:50;8.82;;;1.98;;
84009;SDS011;74073;51.482;4.302;2024-03-02T02:07:17;6.28;;;0.40;;
84009;SDS011;74073;51.482;4.302;2024-03-02T02:09:43;6.05;;;0.38;;
84009;SDS011;74073;51.482;4.302;2024-03-02T02:12:09;4.63;;;0.52;;
84009;SDS011;74073;51.482;4.302;2024-03-02T02:14:35;6.72;;;0.95;;
84009;SDS011;74073;51.482;4.302;2024-03-02T02:17:01;5.03;;;0.70;;
84009;SDS011;74073;51.482;4.302;2024-03-02T02:19:27;4.35;;;0.35;;
84009;SDS011;74073;51.482;4.302;2024-03-02T02:21:54;6.03;;;0.75;;
84009;SDS011;74073;51.482;4.302;2024-03-02T02:24:20;4.85;;;0.65;;
84009;SDS011;74073;51.482;4.302;2024-03-02T02:26:46;3.45;;;0.57;;
84009;SDS011;74073;51.482;4.302;2024-03-02T02:29:12;5.43;;;0.55;;
84009;SDS011;74073;51.482;4.302;2024-03-02T02:31:39;7.53;;;1.30;;
84009;SDS011;74073;51.482;4.302;2024-03-02T02:34:05;4.13;;;0.52;;
84009;SDS011;74073;51.482;4.302;2024-03-02T02:36:34;5.72;;;0.63;;
84009;SDS011;74073;51.482;4.302;2024-03-02T02:39:02;5.03;;;0.43;;
84009;SDS011;74073;51.482;4.302;2024-03-02T02:41:29;4.00;;;0.28;;
84009;SDS011;74073;51.482;4.302;2024-03-02T02:43:55;5.22;;;0.40;;
84009;SDS011;74073;51.482;4.302;2024-03-02T02:46:21;3.30;;;0.57;;
84009;SDS011;74073;51.482;4.302;2024-03-02T02:48:47;3.90;;;0.35;;
84009;SDS011;74073;51.482;4.302;2024-03-02T02:51:13;5.05;;;0.43;;
84009;SDS011;74073;51.482;4.302;2024-03-02T02:53:39;3.28;;;0.45;;
84009;SDS011;74073;51.482;4.302;2024-03-02T02:56:08;3.22;;;0.25;;
84009;SDS011;74073;51.482;4.302;2024-03-02T02:58:35;2.85;;;0.45;;
84009;SDS011;74073;51.482;4.302;2024-03-02T03:01:01;3.58;;;0.25;;
84009;SDS011;74073;51.482;4.302;2024-03-02T03:03:27;3.92;;;0.40;;
84009;SDS011;74073;51.482;4.302;2024-03-02T03:05:53;3.65;;;0.32;;
84009;SDS011;74073;51.482;4.302;2024-03-02T03:08:19;3.17;;;0.32;;
84009;SDS011;74073;51.482;4.302;2024-03-02T03:10:45;3.97;;;1.08;;
84009;SDS011;74073;51.482;4.302;2024-03-02T03:13:11;3.75;;;0.30;;
84009;SDS011;74073;51.482;4.302;2024-03-02T03:15:37;5.95;;;0.25;;
84009;SDS011;74073;51.482;4.302;2024-03-02T03:18:04;2.58;;;0.10;;
84009;SDS011;74073;51.482;4.302;2024-03-02T03:20:30;3.10;;;0.45;;
84009;SDS011;74073;51.482;4.302;2024-03-02T03:22:56;4.60;;;0.60;;
84009;SDS011;74073;51.482;4.302;2024-03-02T03:25:23;2.65;;;0.25;;
84009;SDS011;74073;51.482;4.302;2024-03-02T03:27:49;4.38;;;0.38;;
84009;SDS011;74073;51.482;4.302;2024-03-02T03:30:16;3.25;;;0.77;;
84009;SDS011;74073;51.482;4.302;2024-03-02T03:32:42;4.28;;;0.35;;
84009;SDS011;74073;51.482;4.302;2024-03-02T03:35:08;5.05;;;0.38;;
84009;SDS011;74073;51.482;4.302;2024-03-02T03:37:35;3.65;;;0.40;;
84009;SDS011;74073;51.482;4.302;2024-03-02T03:40:04;3.05;;;0.45;;
84009;SDS011;74073;51.482;4.302;2024-03-02T03:42:37;4.00;;;0.30;;
84009;SDS011;74073;51.482;4.302;2024-03-02T03:45:03;3.00;;;0.43;;
84009;SDS011;74073;51.482;4.302;2024-03-02T03:47:31;2.60;;;0.25;;
84009;SDS011;74073;51.482;4.302;2024-03-02T03:49:57;2.65;;;0.22;;
84009;SDS011;74073;51.482;4.302;2024-03-02T03:52:23;2.65;;;1.13;;
84009;SDS011;74073;51.482;4.302;2024-03-02T03:54:49;2.72;;;0.22;;
84009;SDS011;74073;51.482;4.302;2024-03-02T03:57:15;1.42;;;0.22;;
84009;SDS011;74073;51.482;4.302;2024-03-02T03:59:41;5.10;;;0.98;;
84009;SDS011;74073;51.482;4.302;2024-03-02T04:02:07;1.85;;;0.22;;
84009;SDS011;74073;51.482;4.302;2024-03-02T04:04:34;2.40;;;0.15;;
84009;SDS011;74073;51.482;4.302;2024-03-02T04:07:00;3.15;;;0.30;;
84009;SDS011;74073;51.482;4.302;2024-03-02T04:09:26;2.72;;;0.82;;
84009;SDS011;74073;51.482;4.302;2024-03-02T04:11:52;1.67;;;0.28;;
84009;SDS011;74073;51.482;4.302;2024-03-02T04:14:18;2.38;;;0.17;;
84009;SDS011;74073;51.482;4.302;2024-03-02T04:16:44;3.17;;;0.40;;
84009;SDS011;74073;51.482;4.302;2024-03-02T04:19:10;2.33;;;0.28;;
84009;SDS011;74073;51.482;4.302;2024-03-02T04:21:36;1.73;;;0.35;;
84009;SDS011;74073;51.482;4.302;2024-03-02T04:24:02;1.13;;;0.32;;
84009;SDS011;74073;51.482;4.302;2024-03-02T04:26:28;2.10;;;0.13;;
84009;SDS011;74073;51.482;4.302;2024-03-02T04:28:54;2.25;;;1.02;;
84009;SDS011;74073;51.482;4.302;2024-03-02T04:31:20;3.53;;;0.32;;
84009;SDS011;74073;51.482;4.302;2024-03-02T04:33:46;0.82;;;0.13;;
84009;SDS011;74073;51.482;4.302;2024-03-02T04:36:12;1.95;;;0.20;;
84009;SDS011;74073;51.482;4.302;2024-03-02T04:38:38;3.10;;;0.13;;
84009;SDS011;74073;51.482;4.302;2024-03-02T04:41:05;1.33;;;0.25;;
84009;SDS011;74073;51.482;4.302;2024-03-02T04:43:31;2.50;;;0.45;;
84009;SDS011;74073;51.482;4.302;2024-03-02T04:45:57;1.83;;;0.55;;
84009;SDS011;74073;51.482;4.302;2024-03-02T04:48:24;2.58;;;0.28;;
84009;SDS011;74073;51.482;4.302;2024-03-02T04:50:50;1.67;;;0.28;;
84009;SDS011;74073;51.482;4.302;2024-03-02T04:53:16;2.08;;;0.45;;
84009;SDS011;74073;51.482;4.302;2024-03-02T04:55:42;1.10;;;0.55;;
84009;SDS011;74073;51.482;4.302;2024-03-02T04:58:08;2.42;;;0.47;;
84009;SDS011;74073;51.482;4.302;2024-03-02T05:00:34;0.73;;;0.22;;
84009;SDS011;74073;51.482;4.302;2024-03-02T05:03:00;1.40;;;0.40;;
84009;SDS011;74073;51.482;4.302;2024-03-02T05:05:26;1.42;;;0.20;;
84009;SDS011;74073;51.482;4.302;2024-03-02T05:07:53;2.42;;;0.13;;
84009;SDS011;74073;51.482;4.302;2024-03-02T05:10:19;1.83;;;0.28;;
84009;SDS011;74073;51.482;4.302;2024-03-02T05:12:45;1.73;;;0.10;;
84009;SDS011;74073;51.482;4.302;2024-03-02T05:15:11;4.07;;;0.25;;
84009;SDS011;74073;51.482;4.302;2024-03-02T05:17:38;1.33;;;0.20;;
84009;SDS011;74073;51.482;4.302;2024-03-02T05:20:05;3.30;;;0.40;;
84009;SDS011;74073;51.482;4.302;2024-03-02T05:22:32;1.33;;;0.22;;
84009;SDS011;74073;51.482;4.302;2024-03-02T05:24:59;1.00;;;0.22;;
84009;SDS011;74073;51.482;4.302;2024-03-02T05:27:25;0.50;;;0.13;;
84009;SDS011;74073;51.482;4.302;2024-03-02T05:29:51;1.73;;;0.13;;
84009;SDS011;74073;51.482;4.302;2024-03-02T05:32:18;0.73;;;0.22;;
84009;SDS011;74073;51.482;4.302;2024-03-02T05:34:44;0.90;;;0.17;;
84009;SDS011;74073;51.482;4.302;2024-03-02T05:37:10;2.10;;;0.63;;
84009;SDS011;74073;51.482;4.302;2024-03-02T05:39:36;1.27;;;0.22;;
84009;SDS011;74073;51.482;4.302;2024-03-02T05:42:02;0.73;;;0.32;;
84009;SDS011;74073;51.482;4.302;2024-03-02T05:44:28;1.25;;;0.05;;
84009;SDS011;74073;51.482;4.302;2024-03-02T05:46:54;1.27;;;0.13;;
84009;SDS011;74073;51.482;4.302;2024-03-02T05:49:21;0.80;;;0.20;;
84009;SDS011;74073;51.482;4.302;2024-03-02T05:51:47;2.13;;;0.43;;
84009;SDS011;74073;51.482;4.302;2024-03-02T05:54:13;1.15;;;0.17;;
84009;SDS011;74073;51.482;4.302;2024-03-02T05:56:39;0.55;;;0.03;;
84009;SDS011;74073;51.482;4.302;2024-03-02T05:59:05;1.60;;;0.22;;
84009;SDS011;74073;51.482;4.302;2024-03-02T06:01:38;1.73;;;0.25;;
84009;SDS011;74073;51.482;4.302;2024-03-02T06:04:04;1.27;;;0.13;;
84009;SDS011;74073;51.482;4.302;2024-03-02T06:06:30;0.93;;;0.20;;
84009;SDS011;74073;51.482;4.302;2024-03-02T06:08:59;1.02;;;0.13;;
84009;SDS011;74073;51.482;4.302;2024-03-02T06:11:25;1.55;;;0.05;;
84009;SDS011;74073;51.482;4.302;2024-03-02T06:13:50;1.23;;;0.03;;
84009;SDS011;74073;51.482;4.302;2024-03-02T06:16:17;0.95;;;0.13;;
84009;SDS011;74073;51.482;4.302;2024-03-02T06:18:43;1.10;;;0.13;;
84009;SDS011;74073;51.482;4.302;2024-03-02T06:21:09;1.17;;;0.52;;
84009;SDS011;74073;51.482;4.302;2024-03-02T06:23:35;1.00;;;0.22;;
84009;SDS011;74073;51.482;4.302;2024-03-02T06:26:01;1.70;;;0.25;;
84009;SDS011;74073;51.482;4.302;2024-03-02T06:28:27;0.73;;;0.08;;
84009;SDS011;74073;51.482;4.302;2024-03-02T06:30:54;2.10;;;0.40;;
84009;SDS011;74073;51.482;4.302;2024-03-02T06:33:20;1.08;;;0.13;;
84009;SDS011;74073;51.482;4.302;2024-03-02T06:35:46;0.70;;;0.03;;
84009;SDS011;74073;51.482;4.302;2024-03-02T06:38:12;1.70;;;1.27;;
84009;SDS011;74073;51.482;4.302;2024-03-02T06:40:38;1.90;;;0.40;;
84009;SDS011;74073;51.482;4.302;2024-03-02T06:43:04;0.60;;;0.03;;
84009;SDS011;74073;51.482;4.302;2024-03-02T06:45:30;0.55;;;0.13;;
84009;SDS011;74073;51.482;4.302;2024-03-02T06:50:24;1.10;;;0.20;;
84009;SDS011;74073;51.482;4.302;2024-03-02T06:52:50;0.93;;;0.43;;
84009;SDS011;74073;51.482;4.302;2024-03-02T06:55:16;1.05;;;0.03;;
84009;SDS011;74073;51.482;4.302;2024-03-02T06:57:42;0.73;;;0.03;;
84009;SDS011;74073;51.482;4.302;2024-03-02T07:00:08;0.77;;;0.22;;
84009;SDS011;74073;51.482;4.302;2024-03-02T07:02:35;0.82;;;0.22;;
84009;SDS011;74073;51.482;4.302;2024-03-02T07:05:01;1.65;;;0.70;;
84009;SDS011;74073;51.482;4.302;2024-03-02T07:07:27;1.27;;;0.30;;
84009;SDS011;74073;51.482;4.302;2024-03-02T07:09:54;0.63;;;0.22;;
84009;SDS011;74073;51.482;4.302;2024-03-02T07:12:20;1.63;;;0.30;;
84009;SDS011;74073;51.482;4.302;2024-03-02T07:14:46;1.20;;;0.45;;
84009;SDS011;74073;51.482;4.302;2024-03-02T07:17:30;1.25;;;0.17;;
84009;SDS011;74073;51.482;4.302;2024-03-02T07:19:56;1.98;;;0.80;;
84009;SDS011;74073;51.482;4.302;2024-03-02T07:22:22;1.08;;;0.22;;
84009;SDS011;74073;51.482;4.302;2024-03-02T07:24:49;1.65;;;0.40;;
84009;SDS011;74073;51.482;4.302;2024-03-02T07:27:15;0.90;;;0.10;;
84009;SDS011;74073;51.482;4.302;2024-03-02T07:29:41;0.93;;;0.05;;
84009;SDS011;74073;51.482;4.302;2024-03-02T07:32:08;0.60;;;0.25;;
84009;SDS011;74073;51.482;4.302;2024-03-02T07:34:34;0.40;;;0.15;;
84009;SDS011;74073;51.482;4.302;2024-03-02T07:37:00;1.90;;;0.32;;
84009;SDS011;74073;51.482;4.302;2024-03-02T07:39:27;1.75;;;0.32;;
84009;SDS011;74073;51.482;4.302;2024-03-02T07:41:53;1.33;;;0.32;;
84009;SDS011;74073;51.482;4.302;2024-03-02T07:44:19;0.60;;;0.15;;
84009;SDS011;74073;51.482;4.302;2024-03-02T07:46:46;0.68;;;0.43;;
84009;SDS011;74073;51.482;4.302;2024-03-02T07:49:12;0.63;;;0.20;;
84009;SDS011;74073;51.482;4.302;2024-03-02T07:51:42;1.33;;;0.13;;
84009;SDS011;74073;51.482;4.302;2024-03-02T07:54:08;1.17;;;0.32;;
84009;SDS011;74073;51.482;4.302;2024-03-02T07:56:34;0.70;;;0.22;;
84009;SDS011;74073;51.482;4.302;2024-03-02T07:59:03;1.92;;;0.22;;
84009;SDS011;74073;51.482;4.302;2024-03-02T08:01:30;0.88;;;0.00;;
84009;SDS011;74073;51.482;4.302;2024-03-02T08:04:00;0.52;;;0.35;;
84009;SDS011;74073;51.482;4.302;2024-03-02T08:06:28;1.35;;;0.10;;
84009;SDS011;74073;51.482;4.302;2024-03-02T08:08:54;0.70;;;0.35;;
84009;SDS011;74073;51.482;4.302;2024-03-02T08:11:21;0.90;;;0.22;;
84009;SDS011;74073;51.482;4.302;2024-03-02T08:13:47;1.00;;;0.45;;
84009;SDS011;74073;51.482;4.302;2024-03-02T08:16:16;0.70;;;0.20;;
84009;SDS011;74073;51.482;4.302;2024-03-02T08:18:49;0.82;;;0.10;;
84009;SDS011;74073;51.482;4.302;2024-03-02T08:21:15;0.85;;;0.22;;
84009;SDS011;74073;51.482;4.302;2024-03-02T08:23:42;1.77;;;0.25;;
84009;SDS011;74073;51.482;4.302;2024-03-02T08:26:08;1.13;;;0.28;;
84009;SDS011;74073;51.482;4.302;2024-03-02T08:28:34;1.45;;;0.10;;
84009;SDS011;74073;51.482;4.302;2024-03-02T08:31:02;0.70;;;0.10;;
84009;SDS011;74073;51.482;4.302;2024-03-02T08:33:28;0.45;;;0.13;;
84009;SDS011;74073;51.482;4.302;2024-03-02T08:35:54;0.68;;;0.22;;
84009;SDS011;74073;51.482;4.302;2024-03-02T08:38:20;1.13;;;0.15;;
84009;SDS011;74073;51.482;4.302;2024-03-02T08:40:46;3.58;;;0.10;;
84009;SDS011;74073;51.482;4.302;2024-03-02T08:43:12;1.25;;;0.22;;
84009;SDS011;74073;51.482;4.302;2024-03-02T08:45:40;1.75;;;0.22;;
84009;SDS011;74073;51.482;4.302;2024-03-02T08:48:09;1.88;;;0.08;;
84009;SDS011;74073;51.482;4.302;2024-03-02T08:50:35;30.40;;;15.73;;
84009;SDS011;74073;51.482;4.302;2024-03-02T08:53:03;19.02;;;7.60;;
84009;SDS011;74073;51.482;4.302;2024-03-02T08:55:29;14.02;;;5.50;;
84009;SDS011;74073;51.482;4.302;2024-03-02T08:57:55;12.23;;;4.75;;
84009;SDS011;74073;51.482;4.302;2024-03-02T09:00:21;12.75;;;4.18;;
84009;SDS011;74073;51.482;4.302;2024-03-02T09:02:47;9.07;;;3.15;;
84009;SDS011;74073;51.482;4.302;2024-03-02T09:05:13;10.32;;;3.17;;
84009;SDS011;74073;51.482;4.302;2024-03-02T09:07:39;7.65;;;2.60;;
84009;SDS011;74073;51.482;4.302;2024-03-02T09:10:06;9.00;;;1.77;;
84009;SDS011;74073;51.482;4.302;2024-03-02T09:12:32;7.15;;;2.15;;
84009;SDS011;74073;51.482;4.302;2024-03-02T09:14:59;6.22;;;1.88;;
84009;SDS011;74073;51.482;4.302;2024-03-02T09:17:25;6.50;;;1.55;;
84009;SDS011;74073;51.482;4.302;2024-03-02T09:19:51;5.53;;;0.95;;
84009;SDS011;74073;51.482;4.302;2024-03-02T09:22:20;6.78;;;1.20;;
84009;SDS011;74073;51.482;4.302;2024-03-02T09:24:46;6.82;;;1.60;;
84009;SDS011;74073;51.482;4.302;2024-03-02T09:27:12;4.45;;;0.63;;
84009;SDS011;74073;51.482;4.302;2024-03-02T09:29:38;4.93;;;1.00;;
84009;SDS011;74073;51.482;4.302;2024-03-02T09:32:08;3.95;;;1.08;;
84009;SDS011;74073;51.482;4.302;2024-03-02T09:34:34;6.40;;;0.60;;
84009;SDS011;74073;51.482;4.302;2024-03-02T09:37:00;4.60;;;0.80;;
84009;SDS011;74073;51.482;4.302;2024-03-02T09:39:26;4.30;;;0.75;;
84009;SDS011;74073;51.482;4.302;2024-03-02T09:41:52;3.17;;;0.45;;
84009;SDS011;74073;51.482;4.302;2024-03-02T09:44:19;3.58;;;0.57;;
84009;SDS011;74073;51.482;4.302;2024-03-02T09:46:48;3.20;;;0.43;;
84009;SDS011;74073;51.482;4.302;2024-03-02T09:49:14;4.88;;;1.20;;
84009;SDS011;74073;51.482;4.302;2024-03-02T09:51:41;2.65;;;0.57;;
84009;SDS011;74073;51.482;4.302;2024-03-02T09:54:11;3.00;;;0.30;;
84009;SDS011;74073;51.482;4.302;2024-03-02T09:56:37;3.67;;;0.32;;
84009;SDS011;74073;51.482;4.302;2024-03-02T09:59:03;2.00;;;0.28;;
84009;SDS011;74073;51.482;4.302;2024-03-02T10:01:31;2.80;;;0.70;;
84009;SDS011;74073;51.482;4.302;2024-03-02T10:04:00;4.15;;;1.33;;
84009;SDS011;74073;51.482;4.302;2024-03-02T10:06:28;2.20;;;0.43;;
84009;SDS011;74073;51.482;4.302;2024-03-02T10:08:55;5.50;;;0.30;;
84009;SDS011;74073;51.482;4.302;2024-03-02T10:11:34;6.65;;;1.27;;
84009;SDS011;74073;51.482;4.302;2024-03-02T10:16:43;6.18;;;0.77;;
84009;SDS011;74073;51.482;4.302;2024-03-02T10:21:42;7.97;;;1.17;;
84009;SDS011;74073;51.482;4.302;2024-03-02T10:24:08;6.10;;;0.55;;
84009;SDS011;74073;51.482;4.302;2024-03-02T10:26:34;7.63;;;0.55;;
84009;SDS011;74073;51.482;4.302;2024-03-02T10:29:00;6.18;;;0.85;;
84009;SDS011;74073;51.482;4.302;2024-03-02T10:31:27;3.90;;;0.55;;
84009;SDS011;74073;51.482;4.302;2024-03-02T10:33:59;4.93;;;0.43;;
84009;SDS011;74073;51.482;4.302;2024-03-02T10:36:26;6.78;;;0.70;;
84009;SDS011;74073;51.482;4.302;2024-03-02T10:38:53;4.68;;;0.40;;
84009;SDS011;74073;51.482;4.302;2024-03-02T10:41:26;6.88;;;0.95;;
84009;SDS011;74073;51.482;4.302;2024-03-02T10:43:53;6.13;;;0.75;;
84009;SDS011;74073;51.482;4.302;2024-03-02T10:46:24;6.00;;;0.75;;
84009;SDS011;74073;51.482;4.302;2024-03-02T10:48:54;9.10;;;2.83;;
84009;SDS011;74073;51.482;4.302;2024-03-02T10:51:20;52.47;;;27.73;;
84009;SDS011;74073;51.482;4.302;2024-03-02T10:53:46;22.90;;;11.50;;
84009;SDS011;74073;51.482;4.302;2024-03-02T10:56:13;18.00;;;9.27;;
84009;SDS011;74073;51.482;4.302;2024-03-02T10:58:41;21.60;;;9.48;;
84009;SDS011;74073;51.482;4.302;2024-03-02T11:01:07;19.88;;;8.43;;
84009;SDS011;74073;51.482;4.302;2024-03-02T11:03:36;15.73;;;7.90;;
84009;SDS011;74073;51.482;4.302;2024-03-02T11:06:02;17.77;;;8.38;;
84009;SDS011;74073;51.482;4.302;2024-03-02T11:08:31;15.60;;;7.72;;
84009;SDS011;74073;51.482;4.302;2024-03-02T11:11:02;17.23;;;8.07;;
84009;SDS011;74073;51.482;4.302;2024-03-02T11:13:33;23.45;;;7.53;;
84009;SDS011;74073;51.482;4.302;2024-03-02T11:16:03;17.58;;;6.72;;
84009;SDS011;74073;51.482;4.302;2024-03-02T11:18:29;16.20;;;6.55;;
84009;SDS011;74073;51.482;4.302;2024-03-02T11:20:56;15.10;;;6.85;;
84009;SDS011;74073;51.482;4.302;2024-03-02T11:23:31;13.35;;;5.90;;
84009;SDS011;74073;51.482;4.302;2024-03-02T11:26:17;15.82;;;7.60;;
84009;SDS011;74073;51.482;4.302;2024-03-02T11:28:44;15.23;;;5.90;;
84009;SDS011;74073;51.482;4.302;2024-03-02T11:31:10;14.23;;;4.75;;
84009;SDS011;74073;51.482;4.302;2024-03-02T11:33:36;12.68;;;6.20;;
84009;SDS011;74073;51.482;4.302;2024-03-02T11:36:02;10.65;;;4.57;;
84009;SDS011;74073;51.482;4.302;2024-03-02T11:38:30;14.05;;;5.22;;
84009;SDS011;74073;51.482;4.302;2024-03-02T11:40:58;8.73;;;4.03;;
84009;SDS011;74073;51.482;4.302;2024-03-02T11:43:25;10.13;;;3.15;;
84009;SDS011;74073;51.482;4.302;2024-03-02T11:45:56;10.65;;;3.17;;
84009;SDS011;74073;51.482;4.302;2024-03-02T11:48:23;10.25;;;3.03;;
84009;SDS011;74073;51.482;4.302;2024-03-02T11:50:51;12.27;;;3.30;;
84009;SDS011;74073;51.482;4.302;2024-03-02T11:53:19;8.93;;;2.92;;
84009;SDS011;74073;51.482;4.302;2024-03-02T11:55:45;7.45;;;2.25;;
84009;SDS011;74073;51.482;4.302;2024-03-02T11:58:12;9.65;;;2.50;;
84009;SDS011;74073;51.482;4.302;2024-03-02T12:00:38;7.40;;;2.22;;
84009;SDS011;74073;51.482;4.302;2024-03-02T12:05:30;6.72;;;2.45;;
84009;SDS011;74073;51.482;4.302;2024-03-02T12:07:57;6.68;;;2.45;;
84009;SDS011;74073;51.482;4.302;2024-03-02T12:10:24;9.40;;;2.00;;
84009;SDS011;74073;51.482;4.302;2024-03-02T12:12:59;5.97;;;1.67;;
84009;SDS011;74073;51.482;4.302;2024-03-02T12:15:30;7.63;;;1.88;;
84009;SDS011;74073;51.482;4.302;2024-03-02T12:17:56;7.60;;;1.67;;
84009;SDS011;74073;51.482;4.302;2024-03-02T12:20:23;4.75;;;1.23;;
84009;SDS011;74073;51.482;4.302;2024-03-02T12:22:50;6.75;;;1.30;;
84009;SDS011;74073;51.482;4.302;2024-03-02T12:25:17;5.60;;;1.75;;
84009;SDS011;74073;51.482;4.302;2024-03-02T12:27:44;4.97;;;1.25;;
84009;SDS011;74073;51.482;4.302;2024-03-02T12:30:11;7.22;;;0.90;;
84009;SDS011;74073;51.482;4.302;2024-03-02T12:32:38;5.13;;;0.73;;
84009;SDS011;74073;51.482;4.302;2024-03-02T12:35:05;4.57;;;0.65;;
84009;SDS011;74073;51.482;4.302;2024-03-02T12:37:31;3.20;;;0.60;;
84009;SDS011;74073;51.482;4.302;2024-03-02T12:39:58;4.57;;;0.80;;
84009;SDS011;74073;51.482;4.302;2024-03-02T12:42:24;4.05;;;0.80;;
84009;SDS011;74073;51.482;4.302;2024-03-02T12:44:53;4.90;;;1.20;;
84009;SDS011;74073;51.482;4.302;2024-03-02T12:47:22;4.57;;;0.77;;
84009;SDS011;74073;51.482;4.302;2024-03-02T12:49:49;4.32;;;1.25;;
84009;SDS011;74073;51.482;4.302;2024-03-02T12:52:17;4.40;;;1.40;;
84009;SDS011;74073;51.482;4.302;2024-03-02T12:54:43;4.68;;;0.43;;
84009;SDS011;74073;51.482;4.302;2024-03-02T12:57:09;3.97;;;0.57;;
84009;SDS011;74073;51.482;4.302;2024-03-02T12:59:35;4.10;;;0.32;;
84009;SDS011;74073;51.482;4.302;2024-03-02T13:02:02;3.30;;;0.63;;
84009;SDS011;74073;51.482;4.302;2024-03-02T13:04:28;3.55;;;0.55;;
84009;SDS011;74073;51.482;4.302;2024-03-02T13:06:56;2.92;;;0.68;;
84009;SDS011;74073;51.482;4.302;2024-03-02T13:09:23;4.03;;;1.65;;
84009;SDS011;74073;51.482;4.302;2024-03-02T13:11:50;2.70;;;0.40;;
84009;SDS011;74073;51.482;4.302;2024-03-02T13:14:16;11.50;;;0.70;;
84009;SDS011;74073;51.482;4.302;2024-03-02T13:16:42;5.57;;;0.80;;
84009;SDS011;74073;51.482;4.302;2024-03-02T13:19:08;6.25;;;0.57;;
84009;SDS011;74073;51.482;4.302;2024-03-02T13:21:35;3.30;;;0.75;;
84009;SDS011;74073;51.482;4.302;2024-03-02T13:24:01;3.33;;;0.88;;
84009;SDS011;74073;51.482;4.302;2024-03-02T13:26:28;4.07;;;0.30;;
84009;SDS011;74073;51.482;4.302;2024-03-02T13:28:54;4.18;;;0.80;;
84009;SDS011;74073;51.482;4.302;2024-03-02T13:31:20;3.60;;;0.73;;
84009;SDS011;74073;51.482;4.302;2024-03-02T13:33:46;4.75;;;0.35;;
84009;SDS011;74073;51.482;4.302;2024-03-02T13:36:12;4.93;;;0.50;;
84009;SDS011;74073;51.482;4.302;2024-03-02T13:38:38;6.90;;;0.75;;
84009;SDS011;74073;51.482;4.302;2024-03-02T13:41:04;6.57;;;0.45;;
84009;SDS011;74073;51.482;4.302;2024-03-02T13:43:30;11.00;;;0.57;;
84009;SDS011;74073;51.482;4.302;2024-03-02T13:45:57;2.45;;;0.32;;
84009;SDS011;74073;51.482;4.302;2024-03-02T13:48:24;3.42;;;0.28;;
84009;SDS011;74073;51.482;4.302;2024-03-02T13:50:53;3.20;;;0.45;;
84009;SDS011;74073;51.482;4.302;2024-03-02T13:53:19;3.35;;;0.45;;
84009;SDS011;74073;51.482;4.302;2024-03-02T13:55:45;6.60;;;0.32;;
84009;SDS011;74073;51.482;4.302;2024-03-02T13:58:11;3.65;;;0.22;;
84009;SDS011;74073;51.482;4.302;2024-03-02T14:00:38;2.22;;;0.50;;
84009;SDS011;74073;51.482;4.302;2024-03-02T14:03:04;3.75;;;0.70;;
84009;SDS011;74073;51.482;4.302;2024-03-02T14:05:32;3.60;;;0.70;;
84009;SDS011;74073;51.482;4.302;2024-03-02T14:07:58;4.30;;;0.22;;
84009;SDS011;74073;51.482;4.302;2024-03-02T14:10:25;2.97;;;0.30;;
84009;SDS011;74073;51.482;4.302;2024-03-02T14:12:52;2.58;;;0.38;;
84009;SDS011;74073;51.482;4.302;2024-03-02T14:15:19;5.72;;;0.52;;
84009;SDS011;74073;51.482;4.302;2024-03-02T14:17:45;1.90;;;0.22;;
84009;SDS011;74073;51.482;4.302;2024-03-02T14:20:11;2.53;;;0.20;;
84009;SDS011;74073;51.482;4.302;2024-03-02T14:22:38;2.08;;;0.30;;
84009;SDS011;74073;51.482;4.302;2024-03-02T14:25:04;1.85;;;0.15;;
84009;SDS011;74073;51.482;4.302;2024-03-02T14:27:30;1.77;;;0.13;;
84009;SDS011;74073;51.482;4.302;2024-03-02T14:29:56;1.95;;;0.32;;
84009;SDS011;74073;51.482;4.302;2024-03-02T14:32:22;2.42;;;0.50;;
84009;SDS011;74073;51.482;4.302;2024-03-02T14:34:48;2.80;;;0.28;;
84009;SDS011;74073;51.482;4.302;2024-03-02T14:37:15;2.38;;;0.13;;
84009;SDS011;74073;51.482;4.302;2024-03-02T14:39:41;1.73;;;0.30;;
84009;SDS011;74073;51.482;4.302;2024-03-02T14:42:07;2.10;;;0.17;;
84009;SDS011;74073;51.482;4.302;2024-03-02T14:44:33;3.60;;;0.40;;
84009;SDS011;74073;51.482;4.302;2024-03-02T14:47:00;1.70;;;0.30;;
84009;SDS011;74073;51.482;4.302;2024-03-02T14:49:28;2.28;;;0.22;;
84009;SDS011;74073;51.482;4.302;2024-03-02T14:51:54;4.53;;;0.13;;
84009;SDS011;74073;51.482;4.302;2024-03-02T14:54:20;3.25;;;0.45;;
84009;SDS011;74073;51.482;4.302;2024-03-02T14:56:46;2.00;;;1.33;;